createdAt,value
2018-06-25T00:01:35.069Z,14.60
2018-06-25T00:04:03.373Z,14.60
2018-06-25T00:08:58.871Z,14.50
2018-06-25T00:11:26.869Z,14.50
2018-06-25T00:13:54.381Z,14.50
2018-06-25T00:16:22.609Z,14.50
2018-06-25T00:18:50.537Z,14.50
2018-06-25T00:21:18.061Z,14.40
2018-06-25T00:23:46.293Z,14.40
2018-06-25T00:26:13.890Z,14.40
2018-06-25T00:28:41.911Z,14.40
2018-06-25T00:31:09.894Z,14.30
2018-06-25T00:33:37.412Z,14.30
2018-06-25T00:36:04.969Z,14.30
2018-06-25T00:38:32.536Z,14.30
2018-06-25T00:41:01.522Z,14.30
2018-06-25T00:43:29.413Z,14.30
2018-06-25T00:45:57.388Z,14.40
2018-06-25T00:48:25.197Z,14.40
2018-06-25T00:50:52.720Z,14.50
2018-06-25T00:53:20.589Z,14.30
2018-06-25T00:58:16.005Z,14.20
2018-06-25T01:00:43.522Z,14.30
2018-06-25T01:03:11.044Z,14.30
2018-06-25T01:05:39.077Z,14.30
2018-06-25T01:08:07.109Z,14.30
2018-06-25T01:10:35.800Z,14.30
2018-06-25T01:13:03.348Z,14.20
2018-06-25T01:15:31.437Z,14.30
2018-06-25T01:20:26.957Z,14.10
2018-06-25T01:22:54.493Z,14.00
2018-06-25T01:25:22.332Z,13.90
2018-06-25T01:27:49.872Z,13.90
2018-06-25T01:30:17.879Z,13.80
2018-06-25T01:32:45.396Z,13.80
2018-06-25T01:35:12.996Z,13.80
2018-06-25T01:37:40.533Z,13.70
2018-06-25T01:40:09.753Z,13.60
2018-06-25T01:42:38.393Z,13.60
2018-06-25T01:45:06.303Z,13.60
2018-06-25T01:47:34.533Z,13.60
2018-06-25T01:50:02.062Z,13.60
2018-06-25T01:52:29.591Z,13.60
2018-06-25T01:54:57.517Z,13.60
2018-06-25T01:57:25.046Z,13.60
2018-06-25T01:59:52.581Z,13.60
2018-06-25T02:02:21.515Z,13.70
2018-06-25T02:04:49.057Z,13.70
2018-06-25T02:07:17.232Z,13.70
2018-06-25T02:09:45.590Z,13.70
2018-06-25T02:12:13.120Z,13.70
2018-06-25T02:14:41.377Z,13.70
2018-06-25T02:19:36.341Z,13.70
2018-06-25T02:22:04.035Z,13.60
2018-06-25T02:24:32.347Z,13.70
2018-06-25T02:26:59.872Z,13.60
2018-06-25T02:29:28.024Z,13.60
2018-06-25T02:31:55.549Z,13.50
2018-06-25T02:34:23.179Z,13.50
2018-06-25T02:36:51.277Z,13.50
2018-06-25T02:39:19.477Z,13.50
2018-06-25T02:41:47.563Z,13.50
2018-06-25T02:44:15.589Z,13.50
2018-06-25T02:46:43.759Z,13.50
2018-06-25T02:49:11.280Z,13.50
2018-06-25T02:51:38.829Z,13.50
2018-06-25T02:54:06.703Z,13.40
2018-06-25T02:56:34.829Z,13.30
2018-06-25T02:59:02.405Z,13.30
2018-06-25T03:01:30.353Z,13.20
2018-06-25T03:03:58.308Z,13.10
2018-06-25T03:06:25.829Z,13.10
2018-06-25T03:08:53.353Z,13.00
2018-06-25T03:11:21.505Z,13.00
2018-06-25T03:13:49.020Z,12.90
2018-06-25T03:16:16.545Z,12.80
2018-06-25T03:18:44.091Z,12.80
2018-06-25T03:21:11.627Z,12.80
2018-06-25T03:23:39.641Z,12.80
2018-06-25T03:26:07.170Z,12.80
2018-06-25T03:28:35.309Z,12.80
2018-06-25T03:31:03.461Z,12.70
2018-06-25T03:33:31.014Z,12.70
2018-06-25T03:35:59.813Z,12.70
2018-06-25T03:38:27.335Z,12.80
2018-06-25T03:40:55.456Z,12.80
2018-06-25T03:43:23.781Z,12.80
2018-06-25T03:45:51.895Z,12.80
2018-06-25T03:48:19.982Z,12.80
2018-06-25T03:50:47.523Z,12.80
2018-06-25T03:53:15.454Z,12.80
2018-06-25T03:55:43.537Z,12.70
2018-06-25T03:58:11.498Z,12.70
2018-06-25T04:00:39.112Z,12.70
2018-06-25T04:03:07.317Z,12.70
2018-06-25T04:05:34.909Z,12.70
2018-06-25T04:08:03.608Z,12.70
2018-06-25T04:10:31.149Z,12.70
2018-06-25T04:12:58.756Z,12.70
2018-06-25T04:15:26.313Z,12.70
2018-06-25T04:17:54.672Z,12.70
2018-06-25T04:20:22.670Z,12.70
2018-06-25T04:22:50.807Z,12.70
2018-06-25T04:25:19.043Z,12.80
2018-06-25T04:27:46.917Z,12.80
2018-06-25T04:30:15.037Z,12.80
2018-06-25T04:32:42.917Z,12.80
2018-06-25T04:35:10.566Z,12.80
2018-06-25T04:37:38.117Z,12.80
2018-06-25T04:40:06.261Z,12.90
2018-06-25T04:42:34.669Z,12.90
2018-06-25T04:45:02.662Z,12.90
2018-06-25T04:47:30.736Z,12.90
2018-06-25T04:52:26.541Z,12.90
2018-06-25T04:54:54.557Z,13.00
2018-06-25T04:57:22.077Z,13.00
2018-06-25T04:59:50.437Z,13.10
2018-06-25T05:02:17.953Z,13.00
2018-06-25T05:04:45.477Z,13.10
2018-06-25T05:07:13.560Z,13.10
2018-06-25T05:09:41.189Z,13.10
2018-06-25T05:12:08.729Z,13.10
2018-06-25T05:14:36.273Z,13.10
2018-06-25T05:17:04.364Z,13.20
2018-06-25T05:19:31.896Z,13.30
2018-06-25T05:21:59.479Z,13.30
2018-06-25T05:24:27.679Z,13.40
2018-06-25T05:26:55.763Z,13.40
2018-06-25T05:31:52.581Z,13.50
2018-06-25T05:34:20.128Z,13.40
2018-06-25T05:36:47.733Z,13.40
2018-06-25T05:39:16.041Z,13.40
2018-06-25T05:41:44.317Z,13.50
2018-06-25T05:46:40.885Z,13.60
2018-06-25T05:49:08.713Z,13.60
2018-06-25T05:51:36.243Z,13.70
2018-06-25T05:54:04.391Z,13.60
2018-06-25T05:56:32.574Z,13.60
2018-06-25T05:59:00.097Z,13.60
2018-06-25T06:01:28.277Z,13.60
2018-06-25T06:03:56.530Z,13.50
2018-06-25T06:06:24.241Z,13.50
2018-06-25T06:08:51.965Z,13.50
2018-06-25T06:11:19.871Z,13.50
2018-06-25T06:13:48.408Z,13.50
2018-06-25T06:16:15.936Z,13.60
2018-06-25T06:18:43.494Z,13.60
2018-06-25T06:21:11.889Z,13.50
2018-06-25T06:23:39.808Z,13.50
2018-06-25T06:26:07.334Z,13.40
2018-06-25T06:33:30.669Z,13.40
2018-06-25T06:35:58.189Z,13.50
2018-06-25T06:38:25.735Z,13.50
2018-06-25T06:40:54.065Z,13.50
2018-06-25T06:43:22.434Z,13.40
2018-06-25T06:45:50.613Z,13.40
2018-06-25T06:48:18.277Z,13.40
2018-06-25T06:50:46.129Z,13.30
2018-06-25T06:53:13.712Z,13.30
2018-06-25T06:55:41.617Z,13.20
2018-06-25T06:58:09.761Z,13.10
2018-06-25T07:00:38.126Z,12.90
2018-06-25T07:03:05.763Z,12.90
2018-06-25T07:05:33.320Z,12.80
2018-06-25T07:08:00.861Z,12.80
2018-06-25T07:10:28.958Z,12.70
2018-06-25T07:12:56.603Z,12.80
2018-06-25T07:15:25.166Z,12.70
2018-06-25T07:17:52.717Z,12.70
2018-06-25T07:20:20.611Z,12.60
2018-06-25T07:22:49.053Z,12.50
2018-06-25T07:25:17.035Z,12.50
2018-06-25T07:27:45.048Z,12.40
2018-06-25T07:30:13.081Z,12.50
2018-06-25T07:32:41.293Z,12.50
2018-06-25T07:35:08.841Z,12.40
2018-06-25T07:37:36.768Z,12.50
2018-06-25T07:40:04.464Z,12.50
2018-06-25T07:42:32.784Z,12.40
2018-06-25T07:47:30.153Z,12.50
2018-06-25T07:49:57.742Z,12.40
2018-06-25T07:52:25.742Z,12.50
2018-06-25T07:54:53.280Z,12.40
2018-06-25T07:57:21.529Z,12.50
2018-06-25T07:59:50.038Z,12.50
2018-06-25T08:02:17.561Z,12.50
2018-06-25T08:04:45.217Z,12.70
2018-06-25T08:07:12.768Z,12.80
2018-06-25T08:09:40.307Z,13.00
2018-06-25T08:14:35.875Z,13.20
2018-06-25T08:17:03.553Z,13.30
2018-06-25T08:19:31.247Z,13.30
2018-06-25T08:21:58.782Z,13.30
2018-06-25T08:24:26.821Z,13.50
2018-06-25T08:26:54.739Z,13.50
2018-06-25T08:29:22.857Z,13.50
2018-06-25T08:31:50.453Z,13.40
2018-06-25T08:34:18.441Z,13.30
2018-06-25T08:36:46.152Z,13.40
2018-06-25T08:39:13.709Z,13.40
2018-06-25T08:41:41.663Z,13.40
2018-06-25T08:44:09.685Z,13.40
2018-06-25T08:46:38.469Z,13.40
2018-06-25T08:49:07.149Z,13.40
2018-06-25T08:51:34.821Z,13.50
2018-06-25T08:54:02.928Z,13.50
2018-06-25T08:56:30.920Z,13.60
2018-06-25T08:58:58.847Z,13.50
2018-06-25T09:01:27.029Z,13.50
2018-06-25T09:03:54.605Z,13.50
2018-06-25T09:06:22.161Z,13.50
2018-06-25T09:08:49.899Z,13.50
2018-06-25T09:11:17.558Z,13.50
2018-06-25T09:13:46.139Z,13.60
2018-06-25T09:16:13.851Z,13.70
2018-06-25T09:23:37.690Z,14.00
2018-06-25T09:26:05.208Z,14.10
2018-06-25T09:28:32.728Z,14.20
2018-06-25T09:31:00.694Z,14.20
2018-06-25T09:33:28.671Z,14.30
2018-06-25T09:35:56.223Z,14.30
2018-06-25T09:38:23.767Z,14.30
2018-06-25T09:40:51.725Z,14.40
2018-06-25T09:43:20.635Z,14.40
2018-06-25T09:45:48.815Z,14.60
2018-06-25T09:48:17.113Z,14.80
2018-06-25T09:50:44.724Z,15.00
2018-06-25T09:53:12.842Z,15.00
2018-06-25T09:55:40.461Z,15.00
2018-06-25T09:58:07.984Z,15.20
2018-06-25T10:00:41.355Z,15.20
2018-06-25T10:03:08.916Z,15.10
2018-06-25T10:08:04.160Z,15.20
2018-06-25T10:10:31.740Z,15.30
2018-06-25T10:12:59.351Z,15.40
2018-06-25T10:15:27.019Z,15.40
2018-06-25T10:17:56.019Z,15.50
2018-06-25T10:20:23.563Z,15.60
2018-06-25T10:22:51.101Z,15.70
2018-06-25T10:25:19.157Z,15.60
2018-06-25T10:27:46.727Z,15.70
2018-06-25T10:30:14.696Z,15.60
2018-06-25T10:35:10.379Z,15.60
2018-06-25T10:37:37.954Z,15.60
2018-06-25T10:40:05.577Z,15.70
2018-06-25T10:42:33.632Z,15.60
2018-06-25T10:45:02.243Z,15.70
2018-06-25T10:47:30.655Z,15.70
2018-06-25T10:49:58.223Z,15.70
2018-06-25T10:52:26.265Z,15.70
2018-06-25T10:54:53.845Z,15.70
2018-06-25T10:57:21.343Z,15.80
2018-06-25T10:59:49.006Z,15.70
2018-06-25T11:02:16.556Z,15.70
2018-06-25T11:04:44.169Z,15.90
2018-06-25T11:07:12.014Z,16.10
2018-06-25T11:09:39.539Z,16.20
2018-06-25T11:12:07.192Z,16.40
2018-06-25T11:14:34.788Z,16.50
2018-06-25T11:17:03.036Z,16.60
2018-06-25T11:19:31.187Z,16.80
2018-06-25T11:21:58.746Z,16.90
2018-06-25T11:24:26.981Z,17.10
2018-06-25T11:26:55.096Z,17.20
2018-06-25T11:29:23.646Z,17.30
2018-06-25T11:31:51.202Z,17.30
2018-06-25T11:34:19.403Z,17.30
2018-06-25T11:36:47.673Z,17.10
2018-06-25T11:39:15.975Z,17.10
2018-06-25T11:41:44.015Z,17.00
2018-06-25T11:44:11.921Z,16.90
2018-06-25T11:46:39.996Z,16.70
2018-06-25T11:49:08.046Z,16.60
2018-06-25T11:51:35.573Z,16.60
2018-06-25T11:54:03.126Z,16.60
2018-06-25T11:56:30.689Z,16.50
2018-06-25T11:58:58.236Z,16.40
2018-06-25T12:01:25.920Z,16.30
2018-06-25T12:03:53.553Z,16.40
2018-06-25T12:06:21.145Z,16.50
2018-06-25T12:08:48.693Z,16.70
2018-06-25T12:11:16.308Z,16.90
2018-06-25T12:13:44.581Z,17.30
2018-06-25T12:16:12.119Z,17.60
2018-06-25T12:18:39.641Z,18.00
2018-06-25T12:21:07.185Z,18.60
2018-06-25T12:23:35.225Z,18.90
2018-06-25T12:26:03.841Z,18.70
2018-06-25T12:28:31.431Z,19.00
2018-06-25T12:30:59.494Z,19.40
2018-06-25T12:33:27.461Z,19.30
2018-06-25T12:35:55.533Z,19.10
2018-06-25T12:40:52.233Z,18.90
2018-06-25T12:43:20.281Z,18.90
2018-06-25T12:45:48.097Z,19.00
2018-06-25T12:48:16.197Z,19.10
2018-06-25T12:50:44.438Z,19.10
2018-06-25T12:53:11.997Z,19.10
2018-06-25T12:55:39.549Z,19.10
2018-06-25T12:58:07.161Z,19.20
2018-06-25T13:00:34.815Z,19.30
2018-06-25T13:03:02.488Z,19.30
2018-06-25T13:05:30.073Z,19.30
2018-06-25T13:10:26.257Z,19.40
2018-06-25T13:12:53.863Z,19.50
2018-06-25T13:15:21.433Z,19.70
2018-06-25T13:17:49.081Z,19.80
2018-06-25T13:20:17.546Z,19.50
2018-06-25T13:22:46.317Z,19.70
2018-06-25T13:25:14.597Z,19.90
2018-06-25T13:27:42.134Z,20.20
2018-06-25T13:30:10.325Z,20.20
2018-06-25T13:32:38.161Z,20.30
2018-06-25T13:35:06.200Z,20.20
2018-06-25T13:37:34.597Z,20.20
2018-06-25T13:40:02.165Z,20.10
2018-06-25T13:42:30.177Z,19.80
2018-06-25T13:44:58.264Z,19.70
2018-06-25T13:47:26.300Z,19.60
2018-06-25T13:49:53.832Z,19.50
2018-06-25T13:52:21.595Z,19.30
2018-06-25T13:57:16.672Z,19.30
2018-06-25T13:59:44.325Z,19.30
2018-06-25T14:02:11.989Z,19.40
2018-06-25T14:04:40.193Z,19.40
2018-06-25T14:07:07.983Z,19.30
2018-06-25T14:09:36.114Z,19.30
2018-06-25T14:12:03.749Z,19.00
2018-06-25T14:14:31.284Z,19.00
2018-06-25T14:16:59.063Z,19.10
2018-06-25T14:19:27.685Z,19.20
2018-06-25T14:21:55.285Z,19.20
2018-06-25T14:24:28.886Z,19.40
2018-06-25T14:27:02.057Z,19.60
2018-06-25T14:29:31.397Z,19.80
2018-06-25T14:32:05.349Z,20.10
2018-06-25T14:34:33.599Z,20.10
2018-06-25T14:37:01.153Z,20.20
2018-06-25T14:39:28.712Z,20.30
2018-06-25T14:41:57.689Z,20.40
2018-06-25T14:44:25.715Z,20.60
2018-06-25T14:46:53.806Z,21.00
2018-06-25T14:49:21.361Z,21.60
2018-06-25T14:51:48.945Z,21.80
2018-06-25T14:54:16.594Z,21.80
2018-06-25T14:56:44.145Z,21.80
2018-06-25T15:01:39.607Z,21.60
2018-06-25T15:04:07.251Z,21.50
2018-06-25T15:06:35.249Z,22.20
2018-06-25T15:09:03.038Z,22.60
2018-06-25T15:11:30.557Z,22.40
2018-06-25T15:18:53.101Z,24.70
2018-06-25T15:21:20.679Z,25.30
2018-06-25T15:23:48.202Z,25.10
2018-06-25T15:26:16.277Z,24.60
2018-06-25T15:28:44.341Z,24.00
2018-06-25T15:31:12.325Z,23.60
2018-06-25T15:36:08.313Z,23.20
2018-06-25T15:38:35.865Z,22.80
2018-06-25T15:41:04.113Z,22.30
2018-06-25T15:43:31.898Z,22.10
2018-06-25T15:45:59.765Z,21.70
2018-06-25T15:48:27.309Z,21.60
2018-06-25T15:50:54.845Z,21.60
2018-06-25T15:53:22.405Z,21.60
2018-06-25T15:55:49.957Z,22.30
2018-06-25T15:58:18.285Z,22.10
2018-06-25T16:00:45.885Z,22.20
2018-06-25T16:03:14.565Z,22.50
2018-06-25T16:05:42.120Z,22.40
2018-06-25T16:08:09.708Z,22.20
2018-06-25T16:10:37.646Z,22.00
2018-06-25T16:13:05.857Z,21.70
2018-06-25T16:15:33.465Z,21.50
2018-06-25T16:18:01.486Z,21.30
2018-06-25T16:20:29.144Z,21.10
2018-06-25T16:22:56.712Z,20.90
2018-06-25T16:25:24.727Z,20.80
2018-06-25T16:27:52.784Z,20.70
2018-06-25T16:30:20.816Z,20.50
2018-06-25T16:35:15.842Z,20.40
2018-06-25T16:37:44.537Z,20.40
2018-06-25T16:40:12.569Z,20.20
2018-06-25T16:42:40.525Z,20.20
2018-06-25T16:45:08.737Z,20.20
2018-06-25T16:47:36.767Z,20.00
2018-06-25T16:50:05.537Z,19.90
2018-06-25T16:52:33.361Z,19.70
2018-06-25T16:55:00.958Z,19.80
2018-06-25T16:57:29.144Z,19.80
2018-06-25T16:59:56.681Z,19.70
2018-06-25T17:02:24.773Z,19.60
2018-06-25T17:07:19.845Z,19.50
2018-06-25T17:09:47.873Z,19.30
2018-06-25T17:12:15.429Z,19.30
2018-06-25T17:14:42.989Z,19.20
2018-06-25T17:17:10.566Z,19.10
2018-06-25T17:19:38.102Z,19.10
2018-06-25T17:22:05.830Z,19.10
2018-06-25T17:24:33.765Z,19.00
2018-06-25T17:27:01.379Z,19.00
2018-06-25T17:29:29.357Z,18.90
2018-06-25T17:31:56.942Z,18.90
2018-06-25T17:34:25.077Z,18.90
2018-06-25T17:36:52.617Z,18.80
2018-06-25T17:39:20.584Z,18.60
2018-06-25T17:41:48.513Z,18.60
2018-06-25T17:44:17.209Z,18.50
2018-06-25T17:46:45.281Z,18.40
2018-06-25T17:49:13.327Z,18.30
2018-06-25T17:51:40.961Z,18.20
2018-06-25T17:54:09.091Z,18.10
2018-06-25T17:56:36.614Z,18.00
2018-06-25T17:59:04.918Z,17.80
2018-06-25T18:01:32.607Z,17.80
2018-06-25T18:04:00.147Z,17.80
2018-06-25T18:06:27.705Z,17.70
2018-06-25T18:08:55.430Z,17.60
2018-06-25T18:11:23.509Z,17.50
2018-06-25T18:13:51.054Z,17.40
2018-06-25T18:16:18.584Z,17.40
2018-06-25T18:18:46.125Z,17.30
2018-06-25T18:21:14.213Z,17.30
2018-06-25T18:23:42.494Z,17.20
2018-06-25T18:26:10.383Z,17.10
2018-06-25T18:28:38.452Z,17.00
2018-06-25T18:31:06.637Z,17.00
2018-06-25T18:33:34.605Z,17.00
2018-06-25T18:36:02.678Z,16.90
2018-06-25T18:38:30.637Z,17.00
2018-06-25T18:40:58.842Z,16.90
2018-06-25T18:43:26.888Z,16.80
2018-06-25T18:45:54.986Z,16.80
2018-06-25T18:48:22.693Z,16.70
2018-06-25T18:50:50.701Z,16.60
2018-06-25T18:53:18.280Z,16.40
2018-06-25T18:55:45.837Z,16.40
2018-06-25T18:58:14.238Z,16.40
2018-06-25T19:00:42.280Z,16.40
2018-06-25T19:03:09.832Z,16.30
2018-06-25T19:05:37.544Z,16.30
2018-06-25T19:08:05.277Z,16.30
2018-06-25T19:10:33.401Z,16.20
2018-06-25T19:13:00.936Z,16.20
2018-06-25T19:15:29.208Z,16.10
2018-06-25T19:17:56.759Z,16.10
2018-06-25T19:20:24.725Z,16.00
2018-06-25T19:22:52.920Z,16.00
2018-06-25T19:25:21.125Z,15.90
2018-06-25T19:27:48.752Z,15.90
2018-06-25T19:30:16.953Z,15.90
2018-06-25T19:32:44.973Z,15.90
2018-06-25T19:35:13.029Z,15.80
2018-06-25T19:37:41.414Z,15.80
2018-06-25T19:40:09.313Z,15.70
2018-06-25T19:42:37.348Z,15.70
2018-06-25T19:45:06.145Z,15.60
2018-06-25T19:47:34.080Z,15.70
2018-06-25T19:50:02.917Z,15.60
2018-06-25T19:52:30.606Z,15.50
2018-06-25T19:54:58.574Z,15.40
2018-06-25T19:57:27.367Z,15.30
2018-06-25T19:59:54.981Z,15.30
2018-06-25T20:02:22.533Z,15.30
2018-06-25T20:04:50.476Z,15.30
2018-06-25T20:07:18.892Z,15.30
2018-06-25T20:09:46.804Z,15.30
2018-06-25T20:12:14.437Z,15.30
2018-06-25T20:14:42.077Z,15.20
2018-06-25T20:17:10.573Z,15.20
2018-06-25T20:19:38.359Z,15.20
2018-06-25T20:22:06.420Z,15.20
2018-06-25T20:24:34.624Z,15.10
2018-06-25T20:27:02.951Z,15.10
2018-06-25T20:29:31.126Z,15.10
2018-06-25T20:31:58.661Z,15.10
2018-06-25T20:34:26.349Z,15.00
2018-06-25T20:36:55.262Z,14.90
2018-06-25T20:39:22.885Z,14.90
2018-06-25T20:41:50.991Z,14.90
2018-06-25T20:44:18.981Z,15.00
2018-06-25T20:46:46.893Z,14.90
2018-06-25T20:49:14.917Z,14.90
2018-06-25T20:51:43.233Z,14.90
2018-06-25T20:54:10.837Z,14.90
2018-06-25T20:56:39.077Z,14.90
2018-06-25T20:59:07.214Z,14.80
2018-06-25T21:01:35.997Z,14.90
2018-06-25T21:04:04.999Z,14.90
2018-06-25T21:06:32.637Z,14.90
2018-06-25T21:09:00.190Z,14.90
2018-06-25T21:11:28.189Z,14.80
2018-06-25T21:13:55.756Z,14.80
2018-06-25T21:16:23.687Z,14.80
2018-06-25T21:18:51.576Z,14.80
2018-06-25T21:21:19.486Z,14.80
2018-06-25T21:23:47.024Z,14.80
2018-06-25T21:26:15.080Z,14.80
2018-06-25T21:28:42.621Z,14.70
2018-06-25T21:31:10.461Z,14.60
2018-06-25T21:33:37.996Z,14.60
2018-06-25T21:36:05.645Z,14.60
2018-06-25T21:38:33.214Z,14.50
2018-06-25T21:41:00.774Z,14.50
2018-06-25T21:43:28.681Z,14.50
2018-06-25T21:45:57.580Z,14.50
2018-06-25T21:48:25.130Z,14.60
2018-06-25T21:50:53.317Z,14.60
2018-06-25T21:53:20.845Z,14.60
2018-06-25T21:55:48.386Z,14.60
2018-06-25T21:58:16.328Z,14.60
2018-06-25T22:00:50.711Z,14.50
2018-06-25T22:03:18.269Z,14.50
2018-06-25T22:05:46.533Z,14.50
2018-06-25T22:08:14.518Z,14.50
2018-06-25T22:10:42.544Z,14.40
2018-06-25T22:13:10.597Z,14.30
2018-06-25T22:15:39.098Z,14.20
2018-06-25T22:18:07.437Z,14.20
2018-06-25T22:20:35.299Z,14.30
2018-06-25T22:23:03.321Z,14.30
2018-06-25T22:25:31.590Z,14.30
2018-06-25T22:28:00.297Z,14.20
2018-06-25T22:32:56.528Z,14.10
2018-06-25T22:35:24.376Z,14.20
2018-06-25T22:37:51.912Z,14.20
2018-06-25T22:40:19.436Z,14.20
2018-06-25T22:42:49.689Z,14.20
2018-06-25T22:45:17.616Z,14.20
2018-06-25T22:47:45.500Z,14.10
2018-06-25T22:50:13.552Z,14.10
2018-06-25T22:52:41.088Z,14.10
2018-06-25T22:55:08.677Z,14.10
2018-06-25T22:57:36.224Z,14.10
2018-06-25T23:00:04.225Z,14.20
2018-06-25T23:02:31.917Z,14.20
2018-06-25T23:07:27.408Z,14.10
2018-06-25T23:09:55.854Z,14.10
2018-06-25T23:12:23.751Z,14.10
2018-06-25T23:14:51.630Z,14.00
2018-06-25T23:17:19.145Z,14.10
2018-06-25T23:19:47.333Z,14.10
2018-06-25T23:24:43.580Z,14.10
2018-06-25T23:27:11.671Z,14.10
2018-06-25T23:29:39.576Z,14.00
2018-06-25T23:32:07.163Z,14.00
2018-06-25T23:34:34.680Z,14.10
2018-06-25T23:39:29.672Z,14.00
2018-06-25T23:41:57.410Z,14.00
2018-06-25T23:44:25.397Z,14.00
2018-06-25T23:46:53.430Z,13.90
2018-06-25T23:49:21.629Z,13.80
2018-06-25T23:51:49.140Z,13.90
2018-06-25T23:54:16.669Z,13.90
2018-06-25T23:56:44.800Z,13.90
2018-06-25T23:59:12.337Z,13.90
